createdAt,value
2019-01-26T00:02:56.619Z,35.41
2019-01-26T00:08:04.385Z,35.55
2019-01-26T00:13:12.109Z,25.88
2019-01-26T00:18:19.858Z,35.81
2019-01-26T00:23:27.549Z,28.27
2019-01-26T00:28:35.460Z,34.81
2019-01-26T00:33:43.470Z,34.33
2019-01-26T00:38:51.059Z,25.37
2019-01-26T00:43:58.718Z,26.24
2019-01-26T00:49:06.489Z,25.62
2019-01-26T00:54:14.136Z,31.68
2019-01-26T00:59:21.877Z,31.39
2019-01-26T01:04:29.631Z,33.49
2019-01-26T01:09:37.468Z,35.03
2019-01-26T01:14:45.168Z,55.66
2019-01-26T01:19:52.941Z,37.78
2019-01-26T01:25:00.636Z,35.20
2019-01-26T01:30:08.441Z,39.09
2019-01-26T01:35:16.139Z,44.24
2019-01-26T01:40:23.860Z,64.07
2019-01-26T01:45:31.555Z,44.52
2019-01-26T01:50:39.267Z,52.85
2019-01-26T01:55:47.026Z,52.12
2019-01-26T02:00:54.837Z,46.57
2019-01-26T02:06:02.572Z,35.62
2019-01-26T02:11:10.327Z,35.83
2019-01-26T02:16:18.063Z,60.63
2019-01-26T02:21:25.940Z,57.31
2019-01-26T02:26:33.627Z,43.57
2019-01-26T02:31:41.349Z,40.84
2019-01-26T02:36:49.082Z,41.72
2019-01-26T02:41:57.273Z,60.28
2019-01-26T02:47:04.939Z,42.09
2019-01-26T02:52:12.723Z,55.91
2019-01-26T02:57:20.565Z,42.39
2019-01-26T03:02:28.311Z,60.92
2019-01-26T03:07:36.075Z,43.53
2019-01-26T03:12:43.846Z,61.92
2019-01-26T03:17:51.551Z,44.63
2019-01-26T03:22:59.280Z,39.49
2019-01-26T03:28:07.115Z,42.59
2019-01-26T03:33:14.889Z,42.01
2019-01-26T03:38:22.754Z,42.69
2019-01-26T03:43:30.579Z,61.47
2019-01-26T03:48:38.405Z,46.96
2019-01-26T03:53:46.195Z,60.00
2019-01-26T03:58:54.057Z,42.30
2019-01-26T04:04:01.959Z,41.38
2019-01-26T04:09:09.656Z,58.16
2019-01-26T04:14:18.878Z,59.49
2019-01-26T04:19:24.700Z,58.07
2019-01-26T04:24:32.608Z,45.74
2019-01-26T04:29:40.322Z,45.09
2019-01-26T04:34:48.183Z,43.82
2019-01-26T04:39:55.876Z,44.60
2019-01-26T04:45:03.681Z,44.94
2019-01-26T04:50:11.381Z,43.30
2019-01-26T04:55:19.299Z,42.64
2019-01-26T05:00:26.991Z,42.18
2019-01-26T05:05:34.858Z,60.49
2019-01-26T05:10:42.535Z,61.45
2019-01-26T05:15:50.297Z,45.68
2019-01-26T05:20:58.126Z,57.99
2019-01-26T05:26:05.924Z,41.28
2019-01-26T05:31:13.587Z,40.47
2019-01-26T05:36:21.355Z,40.82
2019-01-26T05:41:29.032Z,39.72
2019-01-26T05:46:36.858Z,42.04
2019-01-26T05:51:44.608Z,40.64
2019-01-26T05:56:52.414Z,58.56
2019-01-26T06:02:00.147Z,42.28
2019-01-26T06:07:07.891Z,56.11
2019-01-26T06:12:15.588Z,42.13
2019-01-26T06:17:23.388Z,41.70
2019-01-26T06:22:31.043Z,57.28
2019-01-26T06:27:38.958Z,43.79
2019-01-26T06:32:46.617Z,40.00
2019-01-26T06:37:54.416Z,57.47
2019-01-26T06:43:02.139Z,43.36
2019-01-26T06:48:09.987Z,39.81
2019-01-26T06:53:17.738Z,39.59
2019-01-26T06:58:25.647Z,38.12
2019-01-26T07:03:33.397Z,41.17
2019-01-26T07:08:41.190Z,40.69
2019-01-26T07:13:48.916Z,40.57
2019-01-26T07:18:56.891Z,39.80
2019-01-26T07:24:04.618Z,40.64
2019-01-26T07:29:12.511Z,38.09
2019-01-26T07:34:20.181Z,49.88
2019-01-26T07:39:27.977Z,36.71
2019-01-26T07:44:35.671Z,33.94
2019-01-26T07:49:43.369Z,33.70
2019-01-26T07:54:51.099Z,33.28
2019-01-26T07:59:58.868Z,32.04
2019-01-26T08:05:06.567Z,32.44
2019-01-26T08:10:14.392Z,31.60
2019-01-26T08:15:22.111Z,30.87
2019-01-26T08:20:29.933Z,42.77
2019-01-26T08:25:37.650Z,31.12
2019-01-26T08:30:45.399Z,31.15
2019-01-26T08:35:53.096Z,29.31
2019-01-26T08:41:00.837Z,31.07
2019-01-26T08:46:08.521Z,31.28
2019-01-26T08:51:16.294Z,31.00
2019-01-26T08:56:23.979Z,36.83
2019-01-26T09:01:31.796Z,29.31
2019-01-26T09:06:39.740Z,29.16
2019-01-26T09:11:47.710Z,35.16
2019-01-26T09:16:55.434Z,23.54
2019-01-26T09:22:03.243Z,30.06
2019-01-26T09:27:10.917Z,22.08
2019-01-26T09:32:18.794Z,22.64
2019-01-26T09:37:26.485Z,21.92
2019-01-26T09:42:34.349Z,22.72
2019-01-26T09:47:42.091Z,20.59
2019-01-26T09:52:49.899Z,21.37
2019-01-26T09:57:57.650Z,22.14
2019-01-26T10:03:05.479Z,20.86
2019-01-26T10:08:13.175Z,22.29
2019-01-26T10:13:20.943Z,22.03
2019-01-26T10:18:28.649Z,22.64
2019-01-26T10:23:36.403Z,24.08
2019-01-26T10:28:44.068Z,24.12
2019-01-26T10:33:51.896Z,22.78
2019-01-26T10:39:00.450Z,22.94
2019-01-26T10:44:06.966Z,22.64
2019-01-26T10:49:14.725Z,29.83
2019-01-26T10:54:22.471Z,31.70
2019-01-26T10:59:30.212Z,24.87
2019-01-26T11:04:38.051Z,22.87
2019-01-26T11:09:45.975Z,23.57
2019-01-26T11:14:53.469Z,24.03
2019-01-26T11:20:01.150Z,32.92
2019-01-26T11:25:08.918Z,24.83
2019-01-26T11:30:16.689Z,29.82
2019-01-26T11:35:24.471Z,23.16
2019-01-26T11:40:32.243Z,21.96
2019-01-26T11:45:40.055Z,27.08
2019-01-26T11:50:47.753Z,21.36
2019-01-26T11:55:55.509Z,19.30
2019-01-26T12:01:03.231Z,17.67
2019-01-26T12:06:11.128Z,16.55
2019-01-26T12:11:18.834Z,16.71
2019-01-26T12:16:27.224Z,16.65
2019-01-26T12:21:33.824Z,16.74
2019-01-26T12:26:41.595Z,15.76
2019-01-26T12:31:49.313Z,16.02
2019-01-26T12:36:57.129Z,15.23
2019-01-26T12:42:04.877Z,15.41
2019-01-26T12:47:16.984Z,17.74
2019-01-26T12:52:19.945Z,14.08
2019-01-26T12:57:27.729Z,12.99
2019-01-26T13:02:35.418Z,11.82
2019-01-26T13:07:43.163Z,11.93
2019-01-26T13:12:50.889Z,10.89
2019-01-26T13:17:58.748Z,10.87
2019-01-26T13:23:06.470Z,10.49
2019-01-26T13:28:14.252Z,10.27
2019-01-26T13:33:22.109Z,9.17
2019-01-26T13:38:29.927Z,8.96
2019-01-26T13:43:37.635Z,8.55
2019-01-26T13:48:45.425Z,10.47
2019-01-26T13:53:53.153Z,9.37
2019-01-26T13:59:00.997Z,8.45
2019-01-26T14:04:08.685Z,8.88
2019-01-26T14:09:16.531Z,11.35
2019-01-26T14:14:24.233Z,10.12
2019-01-26T14:19:31.963Z,12.64
2019-01-26T14:24:39.687Z,10.38
2019-01-26T14:29:47.410Z,9.70
2019-01-26T14:34:55.089Z,9.87
2019-01-26T14:40:02.812Z,9.37
2019-01-26T14:45:10.555Z,8.64
2019-01-26T14:50:18.376Z,8.49
2019-01-26T14:55:26.081Z,8.17
2019-01-26T15:00:33.868Z,8.83
2019-01-26T15:05:41.616Z,8.70
2019-01-26T15:10:49.363Z,8.74
2019-01-26T15:15:57.043Z,10.71
2019-01-26T15:21:04.786Z,10.76
2019-01-26T15:26:12.493Z,10.31
2019-01-26T15:31:20.255Z,8.91
2019-01-26T15:36:27.954Z,9.06
2019-01-26T15:41:35.719Z,9.45
2019-01-26T15:46:43.446Z,9.06
2019-01-26T15:51:51.235Z,9.12
2019-01-26T15:56:58.973Z,9.52
2019-01-26T16:02:06.805Z,12.33
2019-01-26T16:07:14.553Z,12.38
2019-01-26T16:12:22.425Z,9.99
2019-01-26T16:17:30.124Z,11.62
2019-01-26T16:22:37.845Z,11.29
2019-01-26T16:27:45.646Z,11.11
2019-01-26T16:32:53.457Z,9.05
2019-01-26T16:38:01.131Z,8.92
2019-01-26T16:43:09.040Z,9.18
2019-01-26T16:48:16.736Z,9.20
2019-01-26T16:53:24.514Z,9.09
2019-01-26T16:58:32.244Z,8.87
2019-01-26T17:03:40.042Z,9.18
2019-01-26T17:08:47.818Z,8.60
2019-01-26T17:13:55.716Z,8.37
2019-01-26T17:19:03.481Z,8.02
2019-01-26T17:24:11.347Z,7.97
2019-01-26T17:29:19.040Z,8.18
2019-01-26T17:34:30.389Z,9.61
2019-01-26T17:39:34.213Z,9.53
2019-01-26T17:44:42.072Z,7.85
2019-01-26T17:49:49.791Z,9.54
2019-01-26T17:54:57.542Z,9.52
2019-01-26T18:00:05.295Z,9.65
2019-01-26T18:05:13.108Z,9.93
2019-01-26T18:10:20.815Z,9.29
2019-01-26T18:15:28.588Z,7.37
2019-01-26T18:20:36.260Z,9.57
2019-01-26T18:25:44.046Z,10.35
2019-01-26T18:30:51.737Z,8.39
2019-01-26T18:35:59.671Z,8.06
2019-01-26T18:41:07.241Z,9.51
2019-01-26T18:46:15.060Z,9.94
2019-01-26T18:51:22.771Z,10.88
2019-01-26T18:56:30.513Z,10.25
2019-01-26T19:01:38.185Z,10.15
2019-01-26T19:06:45.950Z,9.83
2019-01-26T19:11:53.821Z,9.50
2019-01-26T19:17:01.718Z,9.37
2019-01-26T19:22:09.407Z,9.22
2019-01-26T19:27:17.213Z,9.66
2019-01-26T19:32:24.913Z,10.11
2019-01-26T19:37:32.747Z,10.99
2019-01-26T19:42:40.483Z,10.44
2019-01-26T19:47:48.266Z,9.79
2019-01-26T19:52:55.933Z,9.42
2019-01-26T19:58:03.763Z,9.55
2019-01-26T20:03:11.463Z,9.28
2019-01-26T20:08:19.164Z,8.63
2019-01-26T20:13:26.835Z,7.72
2019-01-26T20:18:34.780Z,7.69
2019-01-26T20:23:42.536Z,8.72
2019-01-26T20:28:50.314Z,7.18
2019-01-26T20:33:58.095Z,7.18
2019-01-26T20:39:05.855Z,7.15
2019-01-26T20:44:13.557Z,7.01
2019-01-26T20:49:21.505Z,8.91
2019-01-26T20:54:29.229Z,7.25
2019-01-26T20:59:36.991Z,6.44
2019-01-26T21:04:44.697Z,7.68
2019-01-26T21:09:52.427Z,7.19
2019-01-26T21:15:04.656Z,6.88
2019-01-26T21:20:07.392Z,6.02
2019-01-26T21:25:15.146Z,5.57
2019-01-26T21:30:23.052Z,6.37
2019-01-26T21:35:30.780Z,5.47
2019-01-26T21:40:38.537Z,5.37
2019-01-26T21:45:46.188Z,5.36
2019-01-26T21:50:54.038Z,5.86
2019-01-26T21:56:01.734Z,5.48
2019-01-26T22:01:09.490Z,4.93
2019-01-26T22:06:17.189Z,4.34
2019-01-26T22:11:25.057Z,4.25
2019-01-26T22:16:32.789Z,4.45
2019-01-26T22:21:45.973Z,4.12
2019-01-26T22:26:47.746Z,4.54
2019-01-26T22:31:55.483Z,4.04
2019-01-26T22:37:03.203Z,4.31
2019-01-26T22:42:11.026Z,3.74
2019-01-26T22:47:18.812Z,3.71
2019-01-26T22:52:26.562Z,3.37
2019-01-26T22:53:45.875Z,3.69
2019-01-26T22:58:53.613Z,4.01
2019-01-26T23:04:01.438Z,3.64
2019-01-26T23:09:09.143Z,3.56
2019-01-26T23:14:17.094Z,3.79
2019-01-26T23:19:24.846Z,3.63
2019-01-26T23:24:32.665Z,3.71
2019-01-26T23:29:40.392Z,3.94
2019-01-26T23:34:48.211Z,3.64
2019-01-26T23:39:55.894Z,3.69
2019-01-26T23:45:03.718Z,3.68
2019-01-26T23:50:11.477Z,3.30
2019-01-26T23:55:19.309Z,3.86
